createdAt,value
2022-08-09T00:00:21.402Z,102585.13
2022-08-09T00:02:51.436Z,102590.41
2022-08-09T00:06:19.590Z,102583.28
2022-08-09T00:08:11.349Z,102582.34
2022-08-09T00:10:41.025Z,102576.06
2022-08-09T00:13:17.414Z,102581.44
2022-08-09T00:15:59.133Z,102572.53
2022-08-09T00:18:34.691Z,102568.94
2022-08-09T00:21:08.515Z,102576.84
2022-08-09T00:23:56.330Z,102577.66
2022-08-09T00:26:33.017Z,102577.63
2022-08-09T00:29:02.354Z,102579.38
2022-08-09T00:32:00.027Z,102578.47
2022-08-09T00:34:19.199Z,102566.00
2022-08-09T00:36:48.939Z,102571.31
2022-08-09T00:40:09.380Z,102574.84
2022-08-09T00:44:15.597Z,102572.19
2022-08-09T00:44:52.228Z,102571.28
2022-08-09T00:47:25.073Z,102572.09
2022-08-09T00:49:55.179Z,102575.63
2022-08-09T00:52:30.060Z,102577.38
2022-08-09T00:55:00.932Z,102579.13
2022-08-09T00:57:34.644Z,102578.13
2022-08-09T01:00:21.680Z,102583.41
2022-08-09T01:03:13.677Z,102586.94
2022-08-09T01:05:59.599Z,102585.16
2022-08-09T01:08:48.765Z,102581.56
2022-08-09T01:11:39.761Z,102577.97
2022-08-09T01:14:37.737Z,102580.59
2022-08-09T01:17:12.280Z,102574.28
2022-08-09T01:20:02.424Z,102571.75
2022-08-09T01:22:35.967Z,102571.72
2022-08-09T01:25:32.015Z,102571.63
2022-08-09T01:28:07.403Z,102578.78
2022-08-09T01:30:51.898Z,102576.03
2022-08-09T01:33:25.713Z,102571.53
2022-08-09T01:36:07.571Z,102570.59
2022-08-09T01:38:47.068Z,102577.66
2022-08-09T01:41:30.280Z,102572.28
2022-08-09T01:44:04.126Z,102585.53
2022-08-09T01:46:42.263Z,102576.56
2022-08-09T01:49:21.065Z,102589.03
2022-08-09T01:52:07.454Z,102588.19
2022-08-09T01:54:44.288Z,102583.75
2022-08-09T01:57:23.921Z,102592.53
2022-08-09T02:00:00.110Z,102585.38
2022-08-09T02:02:32.838Z,102589.81
2022-08-09T02:05:15.121Z,102591.59
2022-08-09T02:08:39.247Z,102579.16
2022-08-09T02:10:58.999Z,102581.81
2022-08-09T02:13:40.429Z,102590.63
2022-08-09T02:16:11.449Z,102573.78
2022-08-09T02:18:43.018Z,102583.56
2022-08-09T02:21:22.045Z,102575.63
2022-08-09T02:24:00.102Z,102580.84
2022-08-09T02:26:33.275Z,102579.06
2022-08-09T02:29:12.689Z,102579.88
2022-08-09T02:31:43.612Z,102575.41
2022-08-09T02:34:40.763Z,102583.38
2022-08-09T02:37:14.837Z,102575.34
2022-08-09T02:40:01.718Z,102577.06
2022-08-09T02:42:36.868Z,102571.66
2022-08-09T02:45:13.634Z,102571.72
2022-08-09T02:47:57.720Z,102579.69
2022-08-09T02:51:06.777Z,102572.63
2022-08-09T02:53:39.986Z,102575.25
2022-08-09T02:56:23.010Z,102573.44
2022-08-09T02:58:51.542Z,102569.06
2022-08-09T03:01:21.911Z,102565.53
2022-08-09T03:04:17.193Z,102571.72
2022-08-09T03:06:48.951Z,102564.56
2022-08-09T03:09:17.801Z,102566.41
2022-08-09T03:12:05.992Z,102563.69
2022-08-09T03:14:34.228Z,102570.69
2022-08-09T03:17:05.756Z,102573.28
2022-08-09T03:19:58.027Z,102567.06
2022-08-09T03:22:25.309Z,102571.53
2022-08-09T03:25:05.942Z,102571.47
2022-08-09T03:27:37.277Z,102567.91
2022-08-09T03:30:29.183Z,102570.50
2022-08-09T03:33:12.775Z,102571.41
2022-08-09T03:36:13.172Z,102576.69
2022-08-09T03:38:37.350Z,102576.50
2022-08-09T03:41:09.171Z,102570.28
2022-08-09T03:43:36.479Z,102573.81
2022-08-09T03:46:19.848Z,102574.72
2022-08-09T03:48:58.277Z,102563.22
2022-08-09T03:51:54.206Z,102571.22
2022-08-09T03:54:15.908Z,102552.59
2022-08-09T03:56:46.540Z,102573.84
2022-08-09T03:59:20.863Z,102565.00
2022-08-09T04:01:59.003Z,102565.00
2022-08-09T04:04:32.565Z,102562.25
2022-08-09T04:07:04.163Z,102562.28
2022-08-09T04:09:41.645Z,102560.53
2022-08-09T04:12:29.994Z,102564.88
2022-08-09T04:15:01.679Z,102566.59
2022-08-09T04:17:31.335Z,102574.47
2022-08-09T04:20:02.628Z,102573.56
2022-08-09T04:22:31.850Z,102578.88
2022-08-09T04:24:59.833Z,102577.97
2022-08-09T04:27:29.285Z,102577.91
2022-08-09T04:29:57.294Z,102580.56
2022-08-09T04:32:37.027Z,102588.50
2022-08-09T04:35:10.984Z,102587.53
2022-08-09T04:37:46.055Z,102588.38
2022-08-09T04:40:29.117Z,102596.34
2022-08-09T04:43:02.406Z,102596.41
2022-08-09T04:45:36.068Z,102593.69
2022-08-09T04:48:17.785Z,102593.72
2022-08-09T04:50:45.042Z,102594.59
2022-08-09T04:53:13.970Z,102599.91
2022-08-09T04:55:58.039Z,102600.84
2022-08-09T04:58:27.967Z,102601.72
2022-08-09T05:00:56.180Z,102601.81
2022-08-09T05:03:40.107Z,102603.59
2022-08-09T05:06:26.819Z,102609.03
2022-08-09T05:09:00.667Z,102602.84
2022-08-09T05:11:30.493Z,102602.88
2022-08-09T05:13:59.980Z,102607.31
2022-08-09T05:16:28.552Z,102610.06
2022-08-09T05:19:00.223Z,102611.88
2022-08-09T05:21:29.715Z,102610.19
2022-08-09T05:24:01.693Z,102613.84
2022-08-09T05:26:37.365Z,102625.47
2022-08-09T05:29:22.107Z,102630.94
2022-08-09T05:31:56.863Z,102632.78
2022-08-09T05:34:32.646Z,102629.25
2022-08-09T05:37:06.034Z,102630.28
2022-08-09T05:39:43.289Z,102625.97
2022-08-09T05:42:17.259Z,102623.38
2022-08-09T05:44:51.726Z,102626.16
2022-08-09T05:47:24.146Z,102626.28
2022-08-09T05:50:30.291Z,102631.69
2022-08-09T05:52:44.631Z,102633.56
2022-08-09T05:55:22.270Z,102651.44
2022-08-09T05:57:57.550Z,102638.25
2022-08-09T06:00:29.172Z,102647.22
2022-08-09T06:02:59.591Z,102643.78
2022-08-09T06:05:50.366Z,102647.41
2022-08-09T06:08:19.331Z,102652.81
2022-08-09T06:10:55.439Z,102658.25
2022-08-09T06:13:23.280Z,102658.41
2022-08-09T06:15:52.361Z,102657.56
2022-08-09T06:18:23.903Z,102665.75
2022-08-09T06:20:58.334Z,102658.69
2022-08-09T06:23:57.962Z,102661.53
2022-08-09T06:26:22.333Z,102658.09
2022-08-09T06:28:59.927Z,102660.84
2022-08-09T06:31:39.336Z,102656.50
2022-08-09T06:34:22.671Z,102661.91
2022-08-09T06:36:58.992Z,102662.88
2022-08-09T06:39:48.181Z,102663.03
2022-08-09T06:42:16.517Z,102662.25
2022-08-09T06:44:54.327Z,102672.09
2022-08-09T06:47:22.326Z,102657.94
2022-08-09T06:50:15.004Z,102666.03
2022-08-09T06:52:47.275Z,102669.63
2022-08-09T06:55:26.398Z,102668.81
2022-08-09T06:58:02.694Z,102661.75
2022-08-09T07:00:51.245Z,102668.03
2022-08-09T07:03:27.882Z,102664.56
2022-08-09T07:06:04.227Z,102670.88
2022-08-09T07:08:33.616Z,102678.03
2022-08-09T07:11:03.550Z,102679.00
2022-08-09T07:13:31.235Z,102674.56
2022-08-09T07:16:42.869Z,102672.81
2022-08-09T07:18:59.547Z,102668.44
2022-08-09T07:21:26.635Z,102677.34
2022-08-09T07:23:58.521Z,102679.19
2022-08-09T07:26:26.185Z,102677.41
2022-08-09T07:29:09.369Z,102671.22
2022-08-09T07:31:45.519Z,102671.22
2022-08-09T07:34:20.966Z,102675.72
2022-08-09T07:36:49.881Z,102656.97
2022-08-09T07:39:20.001Z,102665.03
2022-08-09T07:41:53.891Z,102656.06
2022-08-09T07:44:23.975Z,102665.91
2022-08-09T07:46:59.997Z,102669.50
2022-08-09T07:49:28.560Z,102669.47
2022-08-09T07:52:03.584Z,102662.28
2022-08-09T07:54:34.281Z,102661.41
2022-08-09T07:57:01.572Z,102668.50
2022-08-09T07:59:45.635Z,102669.38
2022-08-09T08:02:19.706Z,102664.03
2022-08-09T08:04:48.598Z,102670.22
2022-08-09T08:08:43.723Z,102677.38
2022-08-09T08:10:08.971Z,102670.16
2022-08-09T08:12:43.634Z,102673.69
2022-08-09T08:15:24.242Z,102670.09
2022-08-09T08:17:57.884Z,102670.91
2022-08-09T08:20:32.574Z,102662.81
2022-08-09T08:23:16.435Z,102674.47
2022-08-09T08:25:48.397Z,102667.22
2022-08-09T08:28:25.926Z,102668.06
2022-08-09T08:31:10.674Z,102665.38
2022-08-09T08:33:54.086Z,102668.88
2022-08-09T08:36:28.893Z,102668.84
2022-08-09T08:38:59.693Z,102673.22
2022-08-09T08:41:50.573Z,102675.91
2022-08-09T08:44:16.635Z,102680.34
2022-08-09T08:47:02.654Z,102671.31
2022-08-09T08:49:48.638Z,102674.72
2022-08-09T08:55:07.213Z,102671.03
2022-08-09T08:57:35.890Z,102675.56
2022-08-09T09:00:17.132Z,102681.72
2022-08-09T09:02:52.298Z,102686.69
2022-08-09T09:05:33.003Z,102685.91
2022-08-09T09:08:03.756Z,102674.22
2022-08-09T09:10:32.145Z,102686.66
2022-08-09T09:12:59.484Z,102685.44
2022-08-09T09:15:38.632Z,102678.56
2022-08-09T09:18:07.694Z,102690.75
2022-08-09T09:20:36.533Z,102693.38
2022-08-09T09:23:03.600Z,102687.03
2022-08-09T09:26:00.963Z,102693.03
2022-08-09T09:29:01.833Z,102693.19
2022-08-09T09:32:03.586Z,102682.47
2022-08-09T09:34:15.273Z,102675.03
2022-08-09T09:36:51.060Z,102672.16
2022-08-09T09:39:23.425Z,102673.13
2022-08-09T09:41:54.284Z,102673.72
2022-08-09T09:44:34.056Z,102668.63
2022-08-09T09:47:16.415Z,102674.66
2022-08-09T09:50:13.797Z,102676.34
2022-08-09T09:52:57.974Z,102663.63
2022-08-09T09:55:32.606Z,102673.34
2022-08-09T09:58:15.620Z,102663.31
2022-08-09T10:00:59.578Z,102663.97
2022-08-09T10:03:57.151Z,102666.16
2022-08-09T10:06:46.880Z,102674.78
2022-08-09T10:09:23.373Z,102674.66
2022-08-09T10:12:11.826Z,102673.59
2022-08-09T10:14:40.251Z,102668.25
2022-08-09T10:17:40.203Z,102669.03
2022-08-09T10:20:15.012Z,102669.50
2022-08-09T10:22:42.580Z,102667.50
2022-08-09T10:25:13.945Z,102659.53
2022-08-09T10:27:56.089Z,102656.13
2022-08-09T10:34:04.499Z,102643.72
2022-08-09T10:36:03.151Z,102649.22
2022-08-09T10:38:54.284Z,102645.22
2022-08-09T10:41:20.619Z,102641.66
2022-08-09T10:44:01.222Z,102644.34
2022-08-09T10:48:17.494Z,102635.94
2022-08-09T10:51:06.912Z,102633.59
2022-08-09T10:54:06.784Z,102633.44
2022-08-09T10:56:42.129Z,102633.84
2022-08-09T10:59:30.812Z,102639.56
2022-08-09T11:03:46.884Z,102630.47
2022-08-09T11:05:25.130Z,102635.16
2022-08-09T11:07:59.461Z,102627.34
2022-08-09T11:10:53.334Z,102624.06
2022-08-09T11:13:54.124Z,102636.81
2022-08-09T11:16:36.979Z,102629.50
2022-08-09T11:19:07.917Z,102625.38
2022-08-09T11:22:21.530Z,102626.03
2022-08-09T11:25:09.761Z,102623.31
2022-08-09T11:28:09.276Z,102612.84
2022-08-09T11:30:37.733Z,102621.00
2022-08-09T11:33:17.742Z,102624.81
2022-08-09T11:35:49.854Z,102615.53
2022-08-09T11:38:32.970Z,102608.84
2022-08-09T11:41:38.163Z,102598.06
2022-08-09T11:44:07.827Z,102609.13
2022-08-09T11:46:54.178Z,102600.13
2022-08-09T11:50:56.228Z,102602.47
2022-08-09T11:53:20.682Z,102598.41
2022-08-09T11:55:53.837Z,102596.88
2022-08-09T11:58:33.139Z,102593.97
2022-08-09T12:01:08.897Z,102588.38
2022-08-09T12:03:57.251Z,102589.59
2022-08-09T12:06:31.991Z,102587.34
2022-08-09T12:09:19.189Z,102592.91
2022-08-09T12:12:12.217Z,102581.78
2022-08-09T12:15:07.838Z,102575.56
2022-08-09T12:17:43.320Z,102581.03
2022-08-09T12:20:26.696Z,102577.88
2022-08-09T12:23:03.024Z,102571.72
2022-08-09T12:25:37.423Z,102572.72
2022-08-09T12:29:13.972Z,102578.69
2022-08-09T12:31:10.740Z,102573.03
2022-08-09T12:33:58.432Z,102570.69
2022-08-09T12:36:27.456Z,102559.28
2022-08-09T12:39:00.506Z,102547.53
2022-08-09T12:41:39.072Z,102550.66
2022-08-09T12:44:12.702Z,102549.44
2022-08-09T12:46:49.303Z,102543.38
2022-08-09T12:49:18.300Z,102547.47
2022-08-09T12:52:02.359Z,102524.88
2022-08-09T12:55:00.793Z,102540.22
2022-08-09T12:57:47.072Z,102541.28
2022-08-09T13:00:34.462Z,102535.34
2022-08-09T13:03:06.405Z,102522.13
2022-08-09T13:05:52.497Z,102532.03
2022-08-09T13:08:40.916Z,102528.06
2022-08-09T13:11:22.743Z,102526.91
2022-08-09T13:14:37.851Z,102527.88
2022-08-09T13:16:52.302Z,102527.53
2022-08-09T13:20:07.801Z,102524.41
2022-08-09T13:22:37.824Z,102523.88
2022-08-09T13:25:13.855Z,102522.38
2022-08-09T13:27:54.514Z,102523.97
2022-08-09T13:30:49.135Z,102517.78
2022-08-09T13:33:23.575Z,102518.75
2022-08-09T13:36:38.221Z,102518.69
2022-08-09T13:38:55.667Z,102513.03
2022-08-09T13:41:58.409Z,102492.13
2022-08-09T13:44:16.428Z,102505.75
2022-08-09T13:47:26.486Z,102499.44
2022-08-09T13:49:37.840Z,102500.97
2022-08-09T13:52:22.821Z,102488.41
2022-08-09T13:55:00.682Z,102497.88
2022-08-09T13:57:40.770Z,102494.69
2022-08-09T14:00:15.552Z,102493.94
2022-08-09T14:03:03.366Z,102500.94
2022-08-09T14:05:58.911Z,102497.75
2022-08-09T14:08:26.969Z,102495.41
2022-08-09T14:10:55.348Z,102492.00
2022-08-09T14:14:16.198Z,102488.59
2022-08-09T14:16:16.027Z,102495.63
2022-08-09T14:18:49.700Z,102499.19
2022-08-09T14:21:21.032Z,102489.81
2022-08-09T14:23:56.702Z,102489.56
2022-08-09T14:26:32.609Z,102485.50
2022-08-09T14:29:07.784Z,102483.56
2022-08-09T14:31:54.854Z,102483.63
2022-08-09T14:34:31.778Z,102478.97
2022-08-09T14:37:07.436Z,102475.84
2022-08-09T14:39:40.372Z,102467.47
2022-08-09T14:42:31.827Z,102472.34
2022-08-09T14:46:58.475Z,102473.25
2022-08-09T14:47:57.046Z,102471.44
2022-08-09T14:50:31.380Z,102466.09
2022-08-09T14:53:10.952Z,102470.78
2022-08-09T14:55:42.342Z,102463.69
2022-08-09T14:58:14.816Z,102467.59
2022-08-09T15:00:42.456Z,102460.41
2022-08-09T15:03:10.590Z,102470.25
2022-08-09T15:05:39.679Z,102468.47
2022-08-09T15:08:17.553Z,102474.97
2022-08-09T15:11:01.785Z,102471.00
2022-08-09T15:13:48.201Z,102478.19
2022-08-09T15:16:20.871Z,102468.41
2022-08-09T15:18:49.348Z,102479.25
2022-08-09T15:21:57.606Z,102468.13
2022-08-09T15:24:12.875Z,102466.72
2022-08-09T15:26:45.326Z,102464.53
2022-08-09T15:30:56.164Z,102456.53
2022-08-09T15:32:02.350Z,102453.22
2022-08-09T15:34:32.628Z,102461.28
2022-08-09T15:37:04.264Z,102465.81
2022-08-09T15:39:43.686Z,102446.84
2022-08-09T15:42:19.968Z,102454.69
2022-08-09T15:44:49.504Z,102454.25
2022-08-09T15:47:22.512Z,102444.78
2022-08-09T15:50:04.191Z,102450.13
2022-08-09T15:52:35.117Z,102447.94
2022-08-09T15:55:05.076Z,102440.81
2022-08-09T15:57:35.762Z,102435.75
2022-08-09T16:00:25.385Z,102438.59
2022-08-09T16:02:56.278Z,102434.19
2022-08-09T16:05:47.780Z,102438.72
2022-08-09T16:08:30.446Z,102434.19
2022-08-09T16:11:01.512Z,102428.97
2022-08-09T16:14:03.575Z,102434.50
2022-08-09T16:16:20.194Z,102435.50
2022-08-09T16:18:53.421Z,102424.22
2022-08-09T16:21:25.931Z,102414.53
2022-08-09T16:23:58.607Z,102425.97
2022-08-09T16:26:34.068Z,102425.38
2022-08-09T16:29:11.036Z,102415.34
2022-08-09T16:32:19.794Z,102424.66
2022-08-09T16:34:53.605Z,102425.72
2022-08-09T16:37:52.915Z,102432.13
2022-08-09T16:40:10.608Z,102423.59
2022-08-09T16:42:38.719Z,102411.81
2022-08-09T16:45:14.340Z,102419.88
2022-08-09T16:48:40.065Z,102410.75
2022-08-09T16:50:34.246Z,102410.41
2022-08-09T16:53:02.769Z,102417.91
2022-08-09T16:55:57.882Z,102415.03
2022-08-09T16:58:18.531Z,102415.97
2022-08-09T17:00:46.613Z,102422.13
2022-08-09T17:03:21.892Z,102424.56
2022-08-09T17:06:09.328Z,102415.91
2022-08-09T17:08:58.903Z,102423.66
2022-08-09T17:11:40.033Z,102412.00
2022-08-09T17:14:26.602Z,102412.94
2022-08-09T17:17:02.680Z,102417.72
2022-08-09T17:19:46.638Z,102417.13
2022-08-09T17:22:28.627Z,102409.16
2022-08-09T17:25:02.667Z,102419.00
2022-08-09T17:27:38.139Z,102415.06
2022-08-09T17:30:14.074Z,102426.28
2022-08-09T17:32:45.260Z,102424.75
2022-08-09T17:35:14.880Z,102415.09
2022-08-09T17:38:14.613Z,102421.50
2022-08-09T17:40:34.639Z,102433.50
2022-08-09T17:43:33.183Z,102433.72
2022-08-09T17:46:03.612Z,102440.28
2022-08-09T17:48:38.887Z,102436.84
2022-08-09T17:51:19.264Z,102445.16
2022-08-09T17:53:54.775Z,102440.13
2022-08-09T17:56:32.463Z,102449.38
2022-08-09T17:59:09.157Z,102441.50
2022-08-09T18:02:06.823Z,102451.44
2022-08-09T18:04:26.962Z,102448.00
2022-08-09T18:06:55.640Z,102453.69
2022-08-09T18:09:41.168Z,102457.44
2022-08-09T18:12:19.568Z,102456.75
2022-08-09T18:14:54.409Z,102456.16
2022-08-09T18:18:01.526Z,102461.06
2022-08-09T18:20:56.017Z,102454.06
2022-08-09T18:22:59.773Z,102458.72
2022-08-09T18:25:50.755Z,102464.28
2022-08-09T18:30:36.132Z,102460.78
2022-08-09T18:31:06.370Z,102461.19
2022-08-09T18:33:34.540Z,102458.53
2022-08-09T18:36:01.634Z,102463.19
2022-08-09T18:38:28.957Z,102458.94
2022-08-09T18:40:56.302Z,102460.00
2022-08-09T18:43:24.871Z,102462.97
2022-08-09T18:46:47.374Z,102464.09
2022-08-09T18:48:39.115Z,102476.97
2022-08-09T18:51:10.081Z,102474.53
2022-08-09T18:53:59.714Z,102473.91
2022-08-09T18:56:27.741Z,102476.03
2022-08-09T18:58:57.103Z,102481.63
2022-08-09T19:01:25.655Z,102474.53
2022-08-09T19:04:06.120Z,102480.19
2022-08-09T19:06:38.775Z,102485.75
2022-08-09T19:09:07.341Z,102484.06
2022-08-09T19:11:35.243Z,102474.28
2022-08-09T19:14:07.143Z,102478.00
2022-08-09T19:16:38.145Z,102482.59
2022-08-09T19:19:21.508Z,102478.22
2022-08-09T19:22:04.703Z,102486.38
2022-08-09T19:24:39.527Z,102485.75
2022-08-09T19:27:22.567Z,102492.09
2022-08-09T19:30:22.608Z,102500.28
2022-08-09T19:32:37.364Z,102491.47
2022-08-09T19:35:05.574Z,102490.72
2022-08-09T19:37:54.356Z,102491.63
2022-08-09T19:40:21.250Z,102490.91
2022-08-09T19:42:49.733Z,102498.19
2022-08-09T19:45:17.267Z,102494.00
2022-08-09T19:47:45.855Z,102494.13
2022-08-09T19:50:51.450Z,102495.16
2022-08-09T19:53:04.009Z,102483.53
2022-08-09T19:56:02.569Z,102485.47
2022-08-09T19:58:30.197Z,102480.97
2022-08-09T20:00:58.323Z,102478.38
2022-08-09T20:04:12.177Z,102496.25
2022-08-09T20:06:23.820Z,102500.00
2022-08-09T20:08:57.670Z,102505.50
2022-08-09T20:11:42.794Z,102511.88
2022-08-09T20:14:15.187Z,102501.16
2022-08-09T20:20:35.552Z,102501.34
2022-08-09T20:23:07.576Z,102497.91
2022-08-09T20:25:51.486Z,102489.03
2022-08-09T20:28:34.171Z,102496.31
2022-08-09T20:31:13.725Z,102500.81
2022-08-09T20:36:13.221Z,102500.03
2022-08-09T20:41:35.145Z,102498.41
2022-08-09T20:44:10.535Z,102507.44
2022-08-09T20:46:42.692Z,102511.91
2022-08-09T20:49:15.849Z,102512.84
2022-08-09T20:51:43.928Z,102505.72
2022-08-09T20:54:16.379Z,102514.69
2022-08-09T20:56:47.049Z,102520.00
2022-08-09T20:59:17.045Z,102529.84
2022-08-09T21:01:50.379Z,102523.63
2022-08-09T21:05:51.714Z,102526.25
2022-08-09T21:07:13.138Z,102522.72
2022-08-09T21:09:56.168Z,102520.09
2022-08-09T21:15:23.881Z,102528.16
2022-08-09T21:18:11.773Z,102524.63
2022-08-09T21:20:54.121Z,102525.56
2022-08-09T21:23:36.027Z,102515.72
2022-08-09T21:26:10.068Z,102514.88
2022-08-09T21:28:37.260Z,102509.56
2022-08-09T21:31:16.680Z,102519.38
2022-08-09T21:33:50.267Z,102520.31
2022-08-09T21:36:28.897Z,102514.97
2022-08-09T21:38:58.847Z,102519.44
2022-08-09T21:42:04.588Z,102521.25
2022-08-09T21:44:32.866Z,102520.41
2022-08-09T21:47:07.917Z,102512.38
2022-08-09T21:49:39.531Z,102516.81
2022-08-09T21:52:17.018Z,102517.72
2022-08-09T21:55:03.098Z,102509.72
2022-08-09T21:57:39.635Z,102522.25
2022-08-09T22:00:31.705Z,102519.59
2022-08-09T22:03:04.716Z,102525.81
2022-08-09T22:05:36.185Z,102527.63
2022-08-09T22:08:13.791Z,102527.63
2022-08-09T22:11:49.138Z,102531.19
2022-08-09T22:13:36.826Z,102534.78
2022-08-09T22:16:08.913Z,102529.44
2022-08-09T22:18:38.522Z,102530.34
2022-08-09T22:21:27.461Z,102531.19
2022-08-09T22:24:16.918Z,102526.75
2022-08-09T22:26:50.965Z,102534.75
2022-08-09T22:29:24.061Z,102521.41
2022-08-09T22:31:57.539Z,102524.97
2022-08-09T22:34:28.094Z,102519.63
2022-08-09T22:36:58.692Z,102526.75
2022-08-09T22:39:55.928Z,102522.31
2022-08-09T22:42:21.455Z,102527.66
2022-08-09T22:45:00.099Z,102521.38
2022-08-09T22:48:17.752Z,102519.59
2022-08-09T22:50:27.006Z,102525.84
2022-08-09T22:52:54.929Z,102528.50
2022-08-09T22:55:39.680Z,102521.38
2022-08-09T22:58:30.941Z,102520.47
2022-08-09T23:01:05.614Z,102521.38
2022-08-09T23:04:05.858Z,102526.69
2022-08-09T23:06:32.737Z,102523.13
2022-08-09T23:09:02.216Z,102529.34
2022-08-09T23:11:29.187Z,102527.56
2022-08-09T23:13:56.442Z,102516.88
2022-08-09T23:16:23.576Z,102522.22
2022-08-09T23:18:50.603Z,102520.44
2022-08-09T23:21:25.322Z,102520.38
2022-08-09T23:24:01.512Z,102522.16
2022-08-09T23:26:35.941Z,102519.50
2022-08-09T23:29:07.728Z,102517.69
2022-08-09T23:31:34.929Z,102516.78
2022-08-09T23:34:02.523Z,102515.88
2022-08-09T23:36:30.821Z,102527.44
2022-08-09T23:38:57.927Z,102526.56
2022-08-09T23:41:28.271Z,102524.78
2022-08-09T23:44:01.152Z,102522.06
2022-08-09T23:46:32.711Z,102527.38
2022-08-09T23:49:00.574Z,102526.47
2022-08-09T23:51:28.589Z,102525.56
2022-08-09T23:54:03.066Z,102528.25
2022-08-09T23:56:51.895Z,102531.78
2022-08-09T23:59:21.029Z,102529.09
